createdAt,value
2023-03-26T00:03:34.421Z,3.13
2023-03-26T00:09:01.738Z,3.05
2023-03-26T00:14:30.220Z,3.38
2023-03-26T00:19:57.631Z,3.35
2023-03-26T00:25:24.809Z,3.50
2023-03-26T00:31:01.940Z,3.35
2023-03-26T00:36:29.795Z,3.80
2023-03-26T00:41:57.805Z,3.65
2023-03-26T00:47:26.325Z,4.30
2023-03-26T00:52:56.045Z,3.03
2023-03-26T00:58:25.034Z,3.83
2023-03-26T01:04:08.111Z,3.30
2023-03-26T01:09:43.061Z,3.42
2023-03-26T01:15:10.640Z,3.47
2023-03-26T01:20:46.899Z,4.57
2023-03-26T01:26:27.896Z,5.50
2023-03-26T01:32:16.953Z,4.15
2023-03-26T01:38:11.159Z,4.25
2023-03-26T01:43:54.195Z,3.75
2023-03-26T01:49:21.785Z,4.03
2023-03-26T01:54:49.374Z,4.00
2023-03-26T02:00:23.179Z,3.97
2023-03-26T02:06:11.536Z,4.63
2023-03-26T02:11:41.948Z,5.40
2023-03-26T02:17:11.095Z,4.45
2023-03-26T02:22:42.024Z,4.93
2023-03-26T02:33:39.927Z,5.70
2023-03-26T02:39:07.179Z,4.43
2023-03-26T02:44:40.694Z,4.25
2023-03-26T02:50:19.961Z,4.32
2023-03-26T02:56:17.612Z,5.10
2023-03-26T03:01:59.409Z,4.93
2023-03-26T03:07:27.496Z,5.18
2023-03-26T03:12:55.490Z,4.57
2023-03-26T03:18:24.005Z,5.60
2023-03-26T03:23:51.596Z,4.25
2023-03-26T03:29:19.076Z,4.13
2023-03-26T03:34:46.569Z,4.13
2023-03-26T03:40:14.428Z,4.38
2023-03-26T03:45:41.961Z,3.90
2023-03-26T03:51:42.719Z,3.05
2023-03-26T03:57:19.400Z,2.63
2023-03-26T04:03:07.418Z,2.42
2023-03-26T04:08:35.835Z,2.10
2023-03-26T04:14:05.362Z,2.00
2023-03-26T04:19:46.221Z,2.58
2023-03-26T04:25:16.578Z,1.92
2023-03-26T04:31:05.079Z,1.45
2023-03-26T04:36:37.551Z,1.90
2023-03-26T04:42:05.703Z,1.35
2023-03-26T04:47:46.848Z,1.35
2023-03-26T04:53:17.266Z,1.40
2023-03-26T04:59:04.345Z,1.50
2023-03-26T05:04:39.901Z,0.90
2023-03-26T05:10:14.011Z,0.82
2023-03-26T05:16:08.195Z,0.80
2023-03-26T05:21:50.722Z,0.70
2023-03-26T05:27:21.904Z,0.98
2023-03-26T05:32:50.253Z,0.90
2023-03-26T05:38:21.872Z,0.77
2023-03-26T05:43:49.678Z,0.65
2023-03-26T05:49:36.585Z,0.88
2023-03-26T05:55:04.139Z,1.50
2023-03-26T06:00:50.194Z,1.50
2023-03-26T06:06:28.863Z,1.48
2023-03-26T06:11:57.940Z,1.40
2023-03-26T06:17:28.904Z,1.60
2023-03-26T06:23:08.844Z,1.20
2023-03-26T06:28:56.852Z,1.20
2023-03-26T06:34:39.950Z,1.20
2023-03-26T06:40:08.717Z,1.00
2023-03-26T06:45:53.407Z,1.25
2023-03-26T06:51:40.987Z,1.20
2023-03-26T06:57:08.877Z,1.42
2023-03-26T07:03:11.884Z,1.20
2023-03-26T07:08:58.048Z,1.20
2023-03-26T07:14:46.859Z,1.15
2023-03-26T07:20:54.395Z,1.35
2023-03-26T07:26:45.819Z,1.00
2023-03-26T07:32:32.564Z,1.00
2023-03-26T07:38:42.249Z,1.30
2023-03-26T07:44:47.637Z,1.63
2023-03-26T07:50:42.131Z,1.30
2023-03-26T07:56:37.733Z,1.85
2023-03-26T08:02:56.144Z,1.70
2023-03-26T08:09:20.790Z,1.52
2023-03-26T08:16:06.042Z,1.30
2023-03-26T08:21:45.445Z,2.67
2023-03-26T08:27:50.336Z,1.55
2023-03-26T08:33:22.420Z,1.27
2023-03-26T08:38:51.324Z,1.20
2023-03-26T08:44:37.039Z,1.60
2023-03-26T08:50:38.664Z,1.10
2023-03-26T08:56:20.493Z,1.17
2023-03-26T09:01:58.070Z,1.17
2023-03-26T09:13:28.265Z,1.10
2023-03-26T09:19:25.914Z,1.23
2023-03-26T09:25:09.670Z,1.10
2023-03-26T09:31:04.283Z,1.20
2023-03-26T09:36:54.201Z,0.90
2023-03-26T09:42:41.591Z,1.10
2023-03-26T09:48:39.000Z,1.30
2023-03-26T09:54:48.878Z,1.10
2023-03-26T10:06:28.846Z,1.30
2023-03-26T10:12:09.332Z,1.30
2023-03-26T10:18:27.638Z,1.13
2023-03-26T10:24:18.494Z,1.02
2023-03-26T10:29:55.388Z,1.15
2023-03-26T10:35:25.578Z,1.45
2023-03-26T10:41:11.486Z,1.42
2023-03-26T10:47:26.859Z,1.10
2023-03-26T10:53:26.606Z,2.28
2023-03-26T10:58:58.646Z,1.50
2023-03-26T11:04:40.994Z,1.20
2023-03-26T11:10:29.636Z,1.70
2023-03-26T11:16:08.883Z,1.98
2023-03-26T11:21:44.700Z,1.75
2023-03-26T11:27:34.669Z,1.48
2023-03-26T11:33:07.260Z,1.80
2023-03-26T11:38:51.355Z,1.50
2023-03-26T11:44:32.437Z,1.40
2023-03-26T11:50:03.113Z,1.10
2023-03-26T11:55:34.188Z,1.50
2023-03-26T12:01:05.657Z,1.88
2023-03-26T12:06:38.324Z,2.10
2023-03-26T12:12:07.757Z,2.40
2023-03-26T12:17:40.463Z,2.33
2023-03-26T12:23:27.490Z,2.20
2023-03-26T12:28:54.772Z,2.50
2023-03-26T12:34:30.951Z,2.83
2023-03-26T12:40:27.701Z,2.42
2023-03-26T12:47:56.539Z,2.63
2023-03-26T12:51:54.152Z,2.58
2023-03-26T12:57:25.443Z,2.20
2023-03-26T13:03:11.601Z,2.20
2023-03-26T13:09:08.758Z,2.38
2023-03-26T13:14:54.142Z,1.70
2023-03-26T13:20:49.767Z,2.13
2023-03-26T13:26:46.743Z,1.88
2023-03-26T13:32:25.409Z,1.90
2023-03-26T13:38:11.977Z,1.83
2023-03-26T13:44:06.927Z,2.17
2023-03-26T13:49:41.991Z,1.90
2023-03-26T13:55:22.530Z,2.28
2023-03-26T14:01:04.475Z,2.05
2023-03-26T14:06:42.927Z,2.05
2023-03-26T14:12:49.448Z,2.30
2023-03-26T14:18:38.742Z,2.22
2023-03-26T14:24:14.366Z,2.00
2023-03-26T14:29:56.319Z,2.22
2023-03-26T14:35:40.368Z,2.10
2023-03-26T14:41:35.712Z,2.20
2023-03-26T14:47:16.005Z,2.45
2023-03-26T14:52:51.920Z,2.10
2023-03-26T14:58:56.974Z,1.98
2023-03-26T15:04:42.319Z,2.50
2023-03-26T15:10:36.249Z,2.55
2023-03-26T15:16:28.261Z,3.33
2023-03-26T15:22:00.844Z,2.63
2023-03-26T15:27:35.887Z,2.83
2023-03-26T15:33:06.691Z,3.58
2023-03-26T15:39:03.378Z,3.55
2023-03-26T15:44:43.765Z,3.38
2023-03-26T15:50:32.717Z,1.60
2023-03-26T15:56:22.466Z,1.73
2023-03-26T16:02:22.945Z,2.13
2023-03-26T16:08:15.794Z,2.22
2023-03-26T16:13:51.026Z,3.50
2023-03-26T16:19:22.050Z,4.32
2023-03-26T16:25:26.512Z,2.85
2023-03-26T16:31:36.066Z,2.63
2023-03-26T16:37:02.833Z,3.53
2023-03-26T16:42:40.854Z,4.28
2023-03-26T16:48:08.752Z,5.28
2023-03-26T16:54:15.184Z,5.00
2023-03-26T17:00:17.018Z,5.50
2023-03-26T17:06:02.397Z,4.63
2023-03-26T17:11:47.372Z,5.47
2023-03-26T17:17:37.147Z,7.22
2023-03-26T17:23:30.942Z,7.30
2023-03-26T17:29:50.227Z,6.75
2023-03-26T17:35:17.901Z,5.88
2023-03-26T17:40:56.615Z,6.03
2023-03-26T17:46:41.967Z,6.60
2023-03-26T17:52:48.320Z,11.07
2023-03-26T17:58:50.605Z,18.50
2023-03-26T18:04:29.443Z,13.40
2023-03-26T18:10:09.095Z,12.35
2023-03-26T18:15:49.188Z,9.93
2023-03-26T18:21:44.208Z,9.13
2023-03-26T18:27:17.479Z,6.97
2023-03-26T18:33:02.826Z,6.15
2023-03-26T18:38:38.035Z,5.18
2023-03-26T18:44:17.271Z,5.22
2023-03-26T18:49:48.955Z,6.00
2023-03-26T18:55:17.134Z,5.18
2023-03-26T19:00:46.276Z,4.60
2023-03-26T19:06:16.048Z,4.82
2023-03-26T19:11:45.676Z,4.18
2023-03-26T19:17:13.269Z,3.88
2023-03-26T19:22:43.867Z,5.38
2023-03-26T19:28:18.548Z,5.15
2023-03-26T19:33:46.688Z,5.68
2023-03-26T19:39:17.297Z,6.72
2023-03-26T19:44:52.117Z,7.10
2023-03-26T19:50:30.250Z,8.70
2023-03-26T19:56:06.322Z,10.75
2023-03-26T20:01:34.804Z,8.88
2023-03-26T20:07:01.851Z,9.55
2023-03-26T20:12:29.027Z,8.82
2023-03-26T20:17:56.668Z,9.70
2023-03-26T20:23:25.760Z,11.40
2023-03-26T20:28:54.204Z,9.13
2023-03-26T20:34:24.602Z,10.55
2023-03-26T20:39:51.938Z,8.75
2023-03-26T20:45:22.109Z,9.40
2023-03-26T20:50:50.941Z,9.63
2023-03-26T20:56:20.947Z,9.95
2023-03-26T21:01:50.173Z,9.77
2023-03-26T21:07:20.673Z,9.93
2023-03-26T21:13:11.717Z,11.90
2023-03-26T21:18:40.616Z,9.80
2023-03-26T21:24:18.614Z,10.38
2023-03-26T21:29:47.281Z,10.38
2023-03-26T21:35:16.826Z,10.20
2023-03-26T21:40:52.918Z,10.25
2023-03-26T21:46:28.080Z,10.43
2023-03-26T21:51:57.563Z,9.65
2023-03-26T21:57:43.318Z,10.05
2023-03-26T22:03:28.452Z,12.20
2023-03-26T22:08:56.703Z,15.50
2023-03-26T22:14:26.001Z,27.83
2023-03-26T22:19:53.944Z,59.38
2023-03-26T22:25:23.198Z,59.30
2023-03-26T22:30:50.396Z,30.10
2023-03-26T22:36:22.712Z,18.98
2023-03-26T22:41:51.636Z,15.65
2023-03-26T22:47:21.974Z,13.10
2023-03-26T22:52:49.680Z,10.27
2023-03-26T22:58:17.478Z,9.57
2023-03-26T23:03:45.089Z,10.02
2023-03-26T23:09:13.404Z,9.52
2023-03-26T23:14:41.716Z,12.02
2023-03-26T23:20:15.679Z,12.43
2023-03-26T23:25:47.032Z,12.65
2023-03-26T23:31:14.511Z,11.48
2023-03-26T23:36:43.167Z,9.35
2023-03-26T23:42:11.854Z,9.60
2023-03-26T23:47:42.536Z,9.27
2023-03-26T23:53:10.323Z,7.93
2023-03-26T23:58:37.863Z,9.23
